Item Display Status Humidity-temperature Sensor

Elevation Above Sea Level: 3 m

 

Deployed Sensor

  • Serial Number: 20224933
  • NDBC Property Number: 42150
  • Start Date: 1/26/2023 (14:34:47 Z)
  • End Date: Currently Active
Relative Humidity [%]     6 entries per hour
Showing data from 2/28/2024 (09:00:00 Z) to 2/27/2024 (00:00:01 Z)
Previous Next [ Day | 3-Days | 7-Days ]
First Last
Prev [ Day | 3-Days | 7-Days ] Next
First Last

Start Time:     :
End Time:     :     
Time (in GMT) :00 :50 :40 :30 :20 :10
Previous Next [ Day | 3-Days | 7-Days ]
First Last
Prev [ Day | 3-Days | 7-Days ] Next
First Last


123 => good data
MM => data is determined as missing
-- => data not received/configured
Back to Top Back to Top
2/28/2024 09:00 to 8:10 79.81 79.35 79.05 79.01 79.43 79.85
2/28/2024 08:00 to 7:10 81.63 84.62 86.66 87.88 88.50 89.10
2/28/2024 07:00 to 6:10 89.79 91.45 92.09 92.37 93.13 94.23
2/28/2024 06:00 to 5:10 95.12 95.94 96.24 96.40 95.72 96.28
2/28/2024 05:00 to 4:10 96.08 95.80 95.72 95.42 95.58 94.93
2/28/2024 04:00 to 3:10 95.03 94.45 93.85 93.57 93.11 92.35
2/28/2024 03:00 to 2:10 90.81 89.38 90.13 91.85 93.17 92.75
2/28/2024 02:00 to 1:10 91.19 91.39 92.09 92.77 93.37 93.81
2/28/2024 01:00 to 0:10 94.41 94.31 94.55 94.47 94.23 93.97
2/28/2024 00:00 to 23:10 94.19 93.41 92.89 93.53 93.33 93.37
2/27/2024 23:00 to 22:10 92.81 92.13 91.59 91.05 90.23 89.28
2/27/2024 22:00 to 21:10 88.28 88.60 89.06 89.56 88.94 85.46
2/27/2024 21:00 to 20:10 84.60 83.21 82.27 81.45 84.11 87.12
2/27/2024 20:00 to 19:10 88.26 88.92 87.32 85.10 85.52 88.02
2/27/2024 19:00 to 18:10 89.30 89.97 88.70 89.30 91.13 91.27
2/27/2024 18:00 to 17:10 90.83 89.52 87.92 87.16 88.16 87.66
2/27/2024 17:00 to 16:10 85.52 85.70 86.12 87.16 87.94 89.48
2/27/2024 16:00 to 15:10 90.23 90.83 91.51 92.29 93.13 94.35
2/27/2024 15:00 to 14:10 94.33 94.25 94.19 94.03 94.25 94.19
2/27/2024 14:00 to 13:10 93.81 94.19 93.73 92.81 92.99 93.71
2/27/2024 13:00 to 12:10 93.83 93.85 93.11 92.77 91.43 90.95
2/27/2024 12:00 to 11:10 91.65 92.05 92.71 93.05 93.21 93.59
2/27/2024 11:00 to 10:10 93.97 94.81 95.50 96.00 96.08 96.44
2/27/2024 10:00 to 9:10 96.50 96.44 96.62 96.54 96.52 96.22
2/27/2024 09:00 to 8:10 96.16 96.34 96.14 95.28 95.46 95.05
2/27/2024 08:00 to 7:10 94.59 94.11 94.11 94.37 94.81 94.61
2/27/2024 07:00 to 6:10 94.27 93.77 93.47 93.25 93.31 92.77
2/27/2024 06:00 to 5:10 92.25 90.81 88.32 87.58 87.56 88.26
2/27/2024 05:00 to 4:10 89.06 89.62 90.17 90.83 91.73 92.63
2/27/2024 04:00 to 3:10 93.67 93.99 93.79 93.67 93.39 92.63
2/27/2024 03:00 to 2:10 92.73 92.37 91.77 90.17 86.56 86.12
2/27/2024 02:00 to 1:10 86.40 86.62 86.90 87.12 87.78 88.58
2/27/2024 01:00 to 0:10 88.72 88.62 88.44 88.56 88.80 87.94

 

 

 

Air Temperature [°C]     6 entries per hour
Showing data from 2/28/2024 (09:00:00 Z) to 2/27/2024 (00:00:01 Z)
Previous Next [ Day | 3-Days | 7-Days ]
First Last
Prev [ Day | 3-Days | 7-Days ] Next
First Last

Start Time:     :
End Time:     :     
Time (in GMT) :00 :50 :40 :30 :20 :10
Previous Next [ Day | 3-Days | 7-Days ]
First Last
Prev [ Day | 3-Days | 7-Days ] Next
First Last


123 => good data
MM => data is determined as missing
-- => data not received/configured
Back to Top Back to Top
2/28/2024 09:00 to 8:10 26.72 26.94 26.72 26.77 26.81 26.72
2/28/2024 08:00 to 7:10 26.67 26.04 25.94 25.72 25.68 25.45
2/28/2024 07:00 to 6:10 25.21 24.94 25.03 24.82 24.41 24.01
2/28/2024 06:00 to 5:10 24.11 24.11 24.45 24.27 24.45 25.08
2/28/2024 05:00 to 4:10 25.53 25.68 25.59 25.68 25.67 25.68
2/28/2024 04:00 to 3:10 25.64 25.73 25.80 25.85 25.72 25.81
2/28/2024 03:00 to 2:10 26.02 26.23 26.19 25.70 25.98 25.92
2/28/2024 02:00 to 1:10 26.21 26.14 25.95 25.72 25.55 25.30
2/28/2024 01:00 to 0:10 25.26 25.22 25.31 25.34 25.24 25.15
2/28/2024 00:00 to 23:10 25.28 25.74 25.66 25.52 25.67 25.96
2/27/2024 23:00 to 22:10 25.86 25.62 25.81 25.73 25.77 25.75
2/27/2024 22:00 to 21:10 25.88 26.13 25.84 25.86 25.72 26.35
2/27/2024 21:00 to 20:10 26.60 26.91 26.99 27.16 26.85 26.29
2/27/2024 20:00 to 19:10 26.08 26.24 26.35 27.35 26.90 26.60
2/27/2024 19:00 to 18:10 26.70 26.33 26.74 26.78 26.58 26.28
2/27/2024 18:00 to 17:10 26.23 26.60 26.79 27.05 26.82 26.56
2/27/2024 17:00 to 16:10 27.13 27.30 27.16 27.23 26.83 26.48
2/27/2024 16:00 to 15:10 26.87 26.59 26.54 26.35 26.07 26.14
2/27/2024 15:00 to 14:10 25.35 25.85 26.11 26.17 26.10 26.14
2/27/2024 14:00 to 13:10 26.03 26.05 26.10 26.34 26.17 26.09
2/27/2024 13:00 to 12:10 25.66 25.74 25.77 25.78 25.81 25.93
2/27/2024 12:00 to 11:10 26.21 26.39 26.10 26.22 26.12 25.89
2/27/2024 11:00 to 10:10 25.72 25.81 25.67 25.58 25.34 25.48
2/27/2024 10:00 to 9:10 25.12 25.14 25.34 25.36 25.50 25.37
2/27/2024 09:00 to 8:10 25.19 24.72 25.21 25.34 25.57 25.32
2/27/2024 08:00 to 7:10 25.23 25.46 26.07 25.96 25.89 25.52
2/27/2024 07:00 to 6:10 25.73 25.79 25.92 25.99 26.08 26.00
2/27/2024 06:00 to 5:10 26.28 26.36 26.74 26.97 26.91 26.89
2/27/2024 05:00 to 4:10 26.94 26.70 26.65 26.59 26.49 26.35
2/27/2024 04:00 to 3:10 26.00 26.09 26.08 26.16 26.08 26.29
2/27/2024 03:00 to 2:10 26.21 26.00 26.02 26.45 27.11 27.16
2/27/2024 02:00 to 1:10 27.36 27.23 27.39 27.06 26.91 27.04
2/27/2024 01:00 to 0:10 27.05 26.95 26.92 26.83 27.10 27.08